Time,TemperatureF,DewpointF,PressureIn,WindDirection,WindDirectionDegrees,WindSpeedMPH,WindSpeedGustMPH,Humidity,HourlyPrecipIn,Conditions,Clouds,dailyrainin,SoftwareType,DateUTC
2013-09-21 00:00:00,62.5,57.6,29.97,West,280,0.0,2.0,84,0.00,,---,0.00,VWS V14.01,2013-09-21 04:00:00,
2013-09-21 00:01:00,61.9,57.3,29.95,WNW,283,0.0,1.0,85,0.00,,---,0.00,VWS V14.01,2013-09-21 04:01:00,
2013-09-21 00:02:00,62.0,57.5,29.95,WNW,299,1.0,1.0,85,0.00,,---,0.00,VWS V14.01,2013-09-21 04:02:00,
2013-09-21 00:07:00,62.6,57.7,29.95,WSW,254,0.0,2.0,84,0.00,,---,0.00,VWS V14.01,2013-09-21 04:07:00,
2013-09-21 00:12:00,62.7,57.5,29.95,SW,217,0.0,2.0,83,0.00,,---,0.00,VWS V14.01,2013-09-21 04:12:00,
2013-09-21 00:17:00,62.5,57.6,29.95,SW,233,1.0,2.0,84,0.00,,---,0.00,VWS V14.01,2013-09-21 04:17:00,
2013-09-21 00:22:00,62.7,57.8,29.94,WNW,297,0.0,2.0,84,0.00,,---,0.00,VWS V14.01,2013-09-21 04:22:00,
2013-09-21 00:27:00,62.9,57.7,29.94,WSW,246,1.0,2.0,83,0.00,,---,0.00,VWS V14.01,2013-09-21 04:27:00,
2013-09-21 00:30:00,62.9,57.7,29.95,East,82,1.0,3.0,83,0.00,,---,0.00,VWS V14.01,2013-09-21 04:30:00,
2013-09-21 00:32:00,63.1,57.9,29.94,SW,222,0.0,0.0,83,0.00,,---,0.00,VWS V14.01,2013-09-21 04:32:00,
2013-09-21 00:37:00,63.1,57.9,29.94,SW,221,0.0,0.0,83,0.00,,---,0.00,VWS V14.01,2013-09-21 04:37:00,
2013-09-21 00:42:00,62.9,57.7,29.94,SW,221,0.0,0.0,83,0.00,,---,0.00,VWS V14.01,2013-09-21 04:42:00,
2013-09-21 00:47:00,62.8,57.6,29.94,West,264,0.0,0.0,83,0.00,,---,0.00,VWS V14.01,2013-09-21 04:47:00,
2013-09-21 00:52:00,62.9,57.7,29.93,NNE,26,0.0,1.0,83,0.00,,---,0.00,VWS V14.01,2013-09-21 04:52:00,
2013-09-21 00:57:00,62.6,57.7,29.93,NNE,26,0.0,1.0,84,0.00,,---,0.00,VWS V14.01,2013-09-21 04:57:00,
2013-09-21 01:00:00,61.8,57.2,29.95,WNW,296,1.0,1.0,85,0.00,,---,0.00,VWS V14.01,2013-09-21 05:00:00,
2013-09-21 01:02:00,62.5,57.6,29.93,SSW,213,0.0,1.0,84,0.00,,---,0.00,VWS V14.01,2013-09-21 05:02:00,
2013-09-21 01:07:00,62.7,57.8,29.93,South,174,0.0,2.0,84,0.00,,---,0.00,VWS V14.01,2013-09-21 05:07:00,
2013-09-21 01:12:00,63.0,57.8,29.93,NNE,22,0.0,2.0,83,0.00,,---,0.00,VWS V14.01,2013-09-21 05:12:00,
2013-09-21 01:17:00,63.3,58.1,29.94,NNE,22,0.0,2.0,83,0.00,,---,0.00,VWS V14.01,2013-09-21 05:17:00,
2013-09-21 01:22:00,63.3,58.1,29.94,NNE,22,1.0,2.0,83,0.00,,---,0.00,VWS V14.01,2013-09-21 05:22:00,
2013-09-21 01:27:00,63.1,57.9,29.94,NNE,22,0.0,2.0,83,0.00,,---,0.00,VWS V14.01,2013-09-21 05:27:00,
2013-09-21 01:30:00,63.1,57.9,29.94,SW,222,0.0,2.0,83,0.00,,---,0.00,VWS V14.01,2013-09-21 05:30:00,
2013-09-21 01:32:00,62.9,57.7,29.94,NNE,22,0.0,0.0,83,0.00,,---,0.00,VWS V14.01,2013-09-21 05:32:00,
2013-09-21 01:37:00,62.5,57.3,29.94,NNE,22,0.0,0.0,83,0.00,,---,0.00,VWS V14.01,2013-09-21 05:37:00,
2013-09-21 01:42:00,62.1,57.2,29.93,NNE,22,0.0,0.0,84,0.00,,---,0.00,VWS V14.01,2013-09-21 05:42:00,
2013-09-21 01:47:00,61.7,57.2,29.93,NNE,22,0.0,0.0,85,0.00,,---,0.00,VWS V14.01,2013-09-21 05:47:00,
2013-09-21 01:52:00,61.1,56.9,29.93,NNE,21,0.0,0.0,86,0.00,,---,0.00,VWS V14.01,2013-09-21 05:52:00,
2013-09-21 01:57:00,60.6,56.7,29.93,SSW,212,0.0,1.0,87,0.00,,---,0.00,VWS V14.01,2013-09-21 05:57:00,
2013-09-21 02:00:00,62.5,57.6,29.93,NNE,27,0.0,1.0,84,0.00,,---,0.00,VWS V14.01,2013-09-21 06:00:00,
2013-09-21 02:02:00,60.3,56.7,29.93,WNW,295,0.0,1.0,88,0.00,,---,0.00,VWS V14.01,2013-09-21 06:02:00,
2013-09-21 02:07:00,60.4,56.8,29.93,WNW,295,0.0,1.0,88,0.00,,---,0.00,VWS V14.01,2013-09-21 06:07:00,
2013-09-21 02:12:00,60.3,56.4,29.93,WNW,301,0.0,1.0,87,0.00,,---,0.00,VWS V14.01,2013-09-21 06:12:00,
2013-09-21 02:17:00,60.2,56.6,29.92,WNW,301,0.0,1.0,88,0.00,,---,0.00,VWS V14.01,2013-09-21 06:17:00,
2013-09-21 02:22:00,60.2,56.6,29.92,WNW,301,0.0,1.0,88,0.00,,---,0.00,VWS V14.01,2013-09-21 06:22:00,
2013-09-21 02:27:00,60.4,56.8,29.92,NW,313,0.0,2.0,88,0.00,,---,0.00,VWS V14.01,2013-09-21 06:27:00,
2013-09-21 02:30:00,63.0,57.8,29.94,NNE,22,0.0,2.0,83,0.00,,---,0.00,VWS V14.01,2013-09-21 06:30:00,
2013-09-21 02:32:00,60.2,56.3,29.92,NW,321,0.0,1.0,87,0.00,,---,0.00,VWS V14.01,2013-09-21 06:32:00,
2013-09-21 02:37:00,59.8,56.2,29.92,SSW,210,1.0,2.0,88,0.00,,---,0.00,VWS V14.01,2013-09-21 06:37:00,
2013-09-21 02:42:00,59.9,56.7,29.91,NNW,347,2.0,2.0,89,0.00,,---,0.00,VWS V14.01,2013-09-21 06:42:00,
2013-09-21 02:47:00,60.6,57.0,29.91,SSE,158,0.0,2.0,88,0.00,,---,0.00,VWS V14.01,2013-09-21 06:47:00,
2013-09-21 02:52:00,61.0,57.1,29.91,SSW,210,2.0,3.0,87,0.00,,---,0.00,VWS V14.01,2013-09-21 06:52:00,
2013-09-21 02:57:00,61.7,57.2,29.92,SE,131,0.0,3.0,85,0.00,,---,0.00,VWS V14.01,2013-09-21 06:57:00,
2013-09-21 03:00:00,60.4,56.5,29.93,WNW,283,0.0,1.0,87,0.00,,---,0.00,VWS V14.01,2013-09-21 07:00:00,
2013-09-21 03:02:00,62.0,57.1,29.92,South,169,0.0,0.0,84,0.00,,---,0.00,VWS V14.01,2013-09-21 07:02:00,
2013-09-21 03:07:00,62.1,57.2,29.91,South,170,0.0,0.0,84,0.00,,---,0.00,VWS V14.01,2013-09-21 07:07:00,
2013-09-21 03:12:00,62.0,57.5,29.91,South,170,0.0,0.0,85,0.00,,---,0.00,VWS V14.01,2013-09-21 07:12:00,
2013-09-21 03:17:00,61.9,57.3,29.91,NE,52,0.0,1.0,85,0.00,,---,0.00,VWS V14.01,2013-09-21 07:17:00,
2013-09-21 03:22:00,61.8,57.2,29.91,East,94,0.0,1.0,85,0.00,,---,0.00,VWS V14.01,2013-09-21 07:22:00,
2013-09-21 03:27:00,61.7,57.2,29.91,NNW,342,0.0,1.0,85,0.00,,---,0.00,VWS V14.01,2013-09-21 07:27:00,
2013-09-21 03:30:00,60.3,56.4,29.92,North,5,0.0,2.0,87,0.00,,---,0.00,VWS V14.01,2013-09-21 07:30:00,
2013-09-21 03:32:00,61.7,57.2,29.91,South,185,0.0,0.0,85,0.00,,---,0.00,VWS V14.01,2013-09-21 07:32:00,
2013-09-21 03:37:00,61.6,57.0,29.91,South,185,0.0,0.0,85,0.00,,---,0.00,VWS V14.01,2013-09-21 07:37:00,
2013-09-21 03:42:00,61.6,57.0,29.91,South,186,0.0,0.0,85,0.00,,---,0.00,VWS V14.01,2013-09-21 07:42:00,
2013-09-21 03:47:00,61.5,57.0,29.91,South,186,0.0,0.0,85,0.00,,---,0.00,VWS V14.01,2013-09-21 07:47:00,
2013-09-21 03:52:00,61.6,57.0,29.91,West,272,0.0,0.0,85,0.00,,---,0.00,VWS V14.01,2013-09-21 07:52:00,
2013-09-21 03:57:00,61.6,57.0,29.91,West,272,0.0,0.0,85,0.00,,---,0.00,VWS V14.01,2013-09-21 07:57:00,
2013-09-21 04:00:00,61.9,57.0,29.92,SSW,201,0.0,3.0,84,0.00,,---,0.00,VWS V14.01,2013-09-21 08:00:00,
2013-09-21 04:02:00,61.6,57.0,29.91,West,271,0.0,0.0,85,0.00,,---,0.00,VWS V14.01,2013-09-21 08:02:00,
2013-09-21 04:07:00,61.5,57.0,29.91,West,281,0.0,2.0,85,0.00,,---,0.00,VWS V14.01,2013-09-21 08:07:00,
2013-09-21 04:12:00,61.5,57.0,29.91,WNW,293,0.0,2.0,85,0.00,,---,0.00,VWS V14.01,2013-09-21 08:12:00,
2013-09-21 04:17:00,61.5,57.3,29.90,NW,308,1.0,2.0,86,0.00,,---,0.00,VWS V14.01,2013-09-21 08:17:00,
2013-09-21 04:22:00,61.5,57.3,29.90,NW,310,0.0,2.0,86,0.00,,---,0.00,VWS V14.01,2013-09-21 08:22:00,
2013-09-21 04:27:00,61.5,57.3,29.90,NW,310,1.0,2.0,86,0.00,,---,0.00,VWS V14.01,2013-09-21 08:27:00,
2013-09-21 04:30:00,61.7,57.2,29.91,South,190,0.0,1.0,85,0.00,,---,0.00,VWS V14.01,2013-09-21 08:30:00,
2013-09-21 04:32:00,61.5,57.3,29.89,SSE,165,0.0,0.0,86,0.00,,---,0.00,VWS V14.01,2013-09-21 08:32:00,
2013-09-21 04:37:00,61.5,57.3,29.89,SE,141,0.0,1.0,86,0.00,,---,0.00,VWS V14.01,2013-09-21 08:37:00,
2013-09-21 04:42:00,61.5,57.3,29.89,WSW,252,2.0,2.0,86,0.00,,---,0.00,VWS V14.01,2013-09-21 08:42:00,
2013-09-21 04:47:00,61.6,57.4,29.89,SW,216,1.0,4.0,86,0.00,,---,0.00,VWS V14.01,2013-09-21 08:47:00,
2013-09-21 04:52:00,61.6,57.4,29.89,SW,224,1.0,4.0,86,0.00,,---,0.00,VWS V14.01,2013-09-21 08:52:00,
2013-09-21 04:57:00,61.6,57.4,29.89,ESE,115,0.0,6.0,86,0.00,,---,0.00,VWS V14.01,2013-09-21 08:57:00,
2013-09-21 05:00:00,61.6,57.0,29.91,West,271,0.0,0.0,85,0.00,,---,0.00,VWS V14.01,2013-09-21 09:00:00,
2013-09-21 05:02:00,61.6,57.4,29.89,West,268,0.0,1.0,86,0.00,,---,0.00,VWS V14.01,2013-09-21 09:02:00,
2013-09-21 05:07:00,61.5,57.3,29.89,WNW,285,0.0,3.0,86,0.00,,---,0.00,VWS V14.01,2013-09-21 09:07:00,
2013-09-21 05:12:00,61.4,57.2,29.89,WNW,292,0.0,3.0,86,0.00,,---,0.00,VWS V14.01,2013-09-21 09:12:00,
2013-09-21 05:17:00,61.4,57.2,29.89,North,9,2.0,3.0,86,0.00,,---,0.00,VWS V14.01,2013-09-21 09:17:00,
2013-09-21 05:22:00,61.5,57.6,29.89,SSE,165,0.0,3.0,87,0.00,,---,0.00,VWS V14.01,2013-09-21 09:22:00,
2013-09-21 05:27:00,61.6,57.4,29.89,SW,224,0.0,3.0,86,0.00,,---,0.00,VWS V14.01,2013-09-21 09:27:00,
2013-09-21 05:30:00,61.5,57.3,29.90,ENE,57,0.0,4.0,86,0.00,,---,0.00,VWS V14.01,2013-09-21 09:30:00,
2013-09-21 05:32:00,61.6,57.7,29.89,East,99,0.0,0.0,87,0.00,,---,0.00,VWS V14.01,2013-09-21 09:32:00,
2013-09-21 05:37:00,61.7,57.5,29.89,East,79,0.0,4.0,86,0.00,,---,0.00,VWS V14.01,2013-09-21 09:37:00,
2013-09-21 05:42:00,61.7,57.5,29.89,ENE,71,0.0,4.0,86,0.00,,---,0.00,VWS V14.01,2013-09-21 09:42:00,
2013-09-21 05:47:00,61.7,57.8,29.89,NE,56,0.0,4.0,87,0.00,,---,0.00,VWS V14.01,2013-09-21 09:47:00,
2013-09-21 05:52:00,61.7,57.8,29.89,East,94,0.0,4.0,87,0.00,,---,0.00,VWS V14.01,2013-09-21 09:52:00,
2013-09-21 05:57:00,61.7,57.8,29.89,East,101,0.0,4.0,87,0.00,,---,0.00,VWS V14.01,2013-09-21 09:57:00,
2013-09-21 06:00:00,61.6,57.4,29.89,ESE,115,0.0,6.0,86,0.00,,---,0.00,VWS V14.01,2013-09-21 10:00:00,
2013-09-21 06:02:00,61.6,57.7,29.89,ENE,60,0.0,0.0,87,0.00,,---,0.00,VWS V14.01,2013-09-21 10:02:00,
2013-09-21 06:07:00,61.6,57.7,29.88,ESE,113,0.0,2.0,87,0.00,,---,0.00,VWS V14.01,2013-09-21 10:07:00,
2013-09-21 06:12:00,61.6,57.7,29.88,NE,50,1.0,4.0,87,0.00,,---,0.00,VWS V14.01,2013-09-21 10:12:00,
2013-09-21 06:17:00,61.5,57.6,29.87,ESE,109,0.0,4.0,87,0.00,,---,0.00,VWS V14.01,2013-09-21 10:17:00,
2013-09-21 06:22:00,61.5,57.9,29.87,East,101,1.0,4.0,88,0.00,,---,0.00,VWS V14.01,2013-09-21 10:22:00,
2013-09-21 06:27:00,61.6,58.0,29.87,ENE,71,1.0,4.0,88,0.00,,---,0.00,VWS V14.01,2013-09-21 10:27:00,
2013-09-21 06:30:00,61.6,57.4,29.89,East,99,0.0,3.0,86,0.00,,---,0.00,VWS V14.01,2013-09-21 10:30:00,
2013-09-21 06:32:00,61.5,57.9,29.87,NNW,338,0.0,1.0,88,0.00,,---,0.00,VWS V14.01,2013-09-21 10:32:00,
2013-09-21 06:37:00,61.6,58.0,29.87,North,353,0.0,2.0,88,0.00,,---,0.00,VWS V14.01,2013-09-21 10:37:00,
2013-09-21 06:42:00,61.6,58.0,29.87,NW,307,1.0,2.0,88,0.00,,---,0.00,VWS V14.01,2013-09-21 10:42:00,
2013-09-21 06:47:00,61.6,58.0,29.87,SSW,205,1.0,2.0,88,0.00,,---,0.00,VWS V14.01,2013-09-21 10:47:00,
2013-09-21 06:52:00,61.6,58.0,29.88,SW,216,0.0,2.0,88,0.00,,---,0.00,VWS V14.01,2013-09-21 10:52:00,
2013-09-21 06:57:00,61.6,58.0,29.88,ENE,77,1.0,2.0,88,0.00,,---,0.00,VWS V14.01,2013-09-21 10:57:00,
2013-09-21 07:00:00,61.7,57.8,29.89,ENE,61,0.0,4.0,87,0.00,,---,0.00,VWS V14.01,2013-09-21 11:00:00,
2013-09-21 07:02:00,61.5,57.9,29.87,WSW,239,0.0,1.0,88,0.00,,---,0.00,VWS V14.01,2013-09-21 11:02:00,
2013-09-21 07:07:00,61.5,58.2,29.87,WSW,239,0.0,1.0,89,0.00,,---,0.00,VWS V14.01,2013-09-21 11:07:00,
2013-09-21 07:12:00,61.4,58.1,29.87,SSE,159,0.0,2.0,89,0.00,,---,0.00,VWS V14.01,2013-09-21 11:12:00,
2013-09-21 07:17:00,61.5,58.2,29.87,SSE,158,0.0,2.0,89,0.00,,---,0.00,VWS V14.01,2013-09-21 11:17:00,
2013-09-21 07:22:00,61.5,58.2,29.87,East,97,0.0,2.0,89,0.00,,---,0.00,VWS V14.01,2013-09-21 11:22:00,
2013-09-21 07:27:00,61.6,58.3,29.87,SSE,159,2.0,9.0,89,0.00,,---,0.00,VWS V14.01,2013-09-21 11:27:00,
2013-09-21 07:30:00,61.6,58.0,29.87,North,8,0.0,4.0,88,0.00,,---,0.00,VWS V14.01,2013-09-21 11:30:00,
2013-09-21 07:32:00,61.7,58.4,29.87,North,355,0.0,4.0,89,0.00,,---,0.00,VWS V14.01,2013-09-21 11:32:00,
2013-09-21 07:37:00,61.9,58.3,29.86,SSW,205,0.0,4.0,88,0.00,,---,0.00,VWS V14.01,2013-09-21 11:37:00,
2013-09-21 07:42:00,61.9,58.3,29.87,SSE,165,0.0,4.0,88,0.00,,---,0.00,VWS V14.01,2013-09-21 11:42:00,
2013-09-21 07:47:00,61.9,58.3,29.86,ENE,76,0.0,4.0,88,0.00,,---,0.00,VWS V14.01,2013-09-21 11:47:00,
2013-09-21 07:52:00,61.9,58.3,29.86,East,101,0.0,4.0,88,0.00,,---,0.00,VWS V14.01,2013-09-21 11:52:00,
2013-09-21 07:57:00,61.9,58.3,29.86,East,101,0.0,4.0,88,0.00,,---,0.00,VWS V14.01,2013-09-21 11:57:00,
2013-09-21 08:00:00,61.6,58.0,29.88,ESE,103,1.0,2.0,88,0.00,,---,0.00,VWS V14.01,2013-09-21 12:00:00,
2013-09-21 08:02:00,61.9,58.3,29.86,East,101,0.0,1.0,88,0.00,,---,0.00,VWS V14.01,2013-09-21 12:02:00,
2013-09-21 08:07:00,61.8,58.5,29.85,ENE,73,1.0,4.0,89,0.00,,---,0.00,VWS V14.01,2013-09-21 12:07:00,
2013-09-21 08:12:00,61.8,58.5,29.85,East,93,1.0,4.0,89,0.00,,---,0.00,VWS V14.01,2013-09-21 12:12:00,
2013-09-21 08:17:00,61.8,58.5,29.85,East,91,0.0,4.0,89,0.00,,---,0.00,VWS V14.01,2013-09-21 12:17:00,
2013-09-21 08:22:00,61.9,58.6,29.85,East,91,0.0,4.0,89,0.00,,---,0.00,VWS V14.01,2013-09-21 12:22:00,
2013-09-21 08:27:00,62.0,58.7,29.85,ESE,113,3.0,4.0,89,0.00,,---,0.00,VWS V14.01,2013-09-21 12:27:00,
2013-09-21 08:30:00,61.6,58.3,29.87,ESE,118,0.0,9.0,89,0.00,,---,0.00,VWS V14.01,2013-09-21 12:30:00,
2013-09-21 08:32:00,62.0,58.7,29.85,East,86,1.0,1.0,89,0.00,,---,0.00,VWS V14.01,2013-09-21 12:32:00,
2013-09-21 08:37:00,62.0,58.7,29.85,East,98,1.0,3.0,89,0.00,,---,0.00,VWS V14.01,2013-09-21 12:37:00,
2013-09-21 08:42:00,62.1,58.8,29.85,East,94,0.0,3.0,89,0.00,,---,0.00,VWS V14.01,2013-09-21 12:42:00,
2013-09-21 08:47:00,62.2,58.9,29.85,ESE,108,2.0,3.0,89,0.00,,---,0.00,VWS V14.01,2013-09-21 12:47:00,
2013-09-21 08:52:00,62.3,59.0,29.85,NNE,15,0.0,3.0,89,0.00,,---,0.00,VWS V14.01,2013-09-21 12:52:00,
2013-09-21 08:57:00,62.4,59.1,29.85,ENE,77,0.0,3.0,89,0.00,,---,0.00,VWS V14.01,2013-09-21 12:57:00,
2013-09-21 09:00:00,61.9,58.3,29.86,East,99,0.0,4.0,88,0.00,,---,0.00,VWS V14.01,2013-09-21 13:00:00,
2013-09-21 09:02:00,62.4,59.1,29.84,East,86,0.0,0.0,89,0.00,,---,0.00,VWS V14.01,2013-09-21 13:02:00,
2013-09-21 09:07:00,62.5,59.2,29.84,East,96,0.0,3.0,89,0.00,,---,0.00,VWS V14.01,2013-09-21 13:07:00,
2013-09-21 09:12:00,62.5,58.9,29.84,ESE,114,0.0,5.0,88,0.00,,---,0.00,VWS V14.01,2013-09-21 13:12:00,
2013-09-21 09:17:00,62.6,59.0,29.84,SSE,155,0.0,5.0,88,0.00,,---,0.00,VWS V14.01,2013-09-21 13:17:00,
2013-09-21 09:22:00,62.7,59.1,29.84,East,86,0.0,5.0,88,0.00,,---,0.00,VWS V14.01,2013-09-21 13:22:00,
2013-09-21 09:27:00,62.8,59.2,29.84,ESE,110,0.0,5.0,88,0.00,,---,0.00,VWS V14.01,2013-09-21 13:27:00,
2013-09-21 09:30:00,62.0,58.7,29.85,NNE,14,0.0,4.0,89,0.00,,---,0.00,VWS V14.01,2013-09-21 13:30:00,
2013-09-21 09:32:00,62.9,59.3,29.84,ENE,62,2.0,2.0,88,0.00,,---,0.00,VWS V14.01,2013-09-21 13:32:00,
2013-09-21 09:37:00,63.0,59.7,29.84,West,266,2.0,5.0,89,0.00,,---,0.00,VWS V14.01,2013-09-21 13:37:00,
2013-09-21 09:43:00,63.3,59.7,29.84,SSW,198,0.0,5.0,88,0.00,,---,0.00,VWS V14.01,2013-09-21 13:43:00,
2013-09-21 09:48:00,63.6,60.0,29.83,SE,139,0.0,6.0,88,0.00,,---,0.00,VWS V14.01,2013-09-21 13:48:00,
2013-09-21 09:53:00,63.9,60.3,29.83,East,88,1.0,6.0,88,0.00,,---,0.00,VWS V14.01,2013-09-21 13:53:00,
2013-09-21 09:58:00,64.0,60.1,29.83,East,79,0.0,6.0,87,0.00,,---,0.00,VWS V14.01,2013-09-21 13:58:00,
2013-09-21 10:00:00,62.4,59.1,29.84,East,86,0.0,3.0,89,0.00,,---,0.00,VWS V14.01,2013-09-21 14:00:00,
2013-09-21 10:03:00,64.1,60.2,29.83,SW,227,4.0,4.0,87,0.00,,---,0.00,VWS V14.01,2013-09-21 14:03:00,
2013-09-21 10:08:00,64.2,60.3,29.83,SE,128,0.0,5.0,87,0.00,,---,0.00,VWS V14.01,2013-09-21 14:08:00,
2013-09-21 10:13:00,64.3,60.3,29.83,SW,224,0.0,5.0,87,0.00,,---,0.00,VWS V14.01,2013-09-21 14:13:00,
2013-09-21 10:18:00,64.4,60.5,29.83,SSW,197,2.0,5.0,87,0.00,,---,0.00,VWS V14.01,2013-09-21 14:18:00,
2013-09-21 10:23:00,64.4,60.5,29.83,SSE,164,0.0,5.0,87,0.00,,---,0.00,VWS V14.01,2013-09-21 14:23:00,
2013-09-21 10:28:00,64.3,60.3,29.82,SSE,168,0.0,5.0,87,0.00,,---,0.00,VWS V14.01,2013-09-21 14:28:00,
2013-09-21 10:30:00,62.9,59.3,29.84,NNE,30,1.0,5.0,88,0.00,,---,0.00,VWS V14.01,2013-09-21 14:30:00,
2013-09-21 10:33:00,64.3,60.3,29.82,South,187,0.0,2.0,87,0.00,,---,0.00,VWS V14.01,2013-09-21 14:33:00,
2013-09-21 10:38:00,64.2,60.6,29.82,SSW,213,0.0,8.0,88,0.00,,---,0.00,VWS V14.01,2013-09-21 14:38:00,
2013-09-21 10:43:00,64.3,60.3,29.82,West,275,1.0,8.0,87,0.00,,---,0.00,VWS V14.01,2013-09-21 14:43:00,
2013-09-21 10:48:00,64.3,60.3,29.82,WSW,257,0.0,8.0,87,0.00,,---,0.00,VWS V14.01,2013-09-21 14:48:00,
2013-09-21 10:53:00,64.5,60.5,29.81,West,259,3.0,8.0,87,0.00,,---,0.00,VWS V14.01,2013-09-21 14:53:00,
2013-09-21 10:58:00,64.5,60.5,29.81,South,188,0.0,8.0,87,0.00,,---,0.00,VWS V14.01,2013-09-21 14:58:00,
2013-09-21 11:00:00,64.0,60.1,29.83,West,281,4.0,6.0,87,0.00,,---,0.00,VWS V14.01,2013-09-21 15:00:00,
2013-09-21 11:03:00,64.7,60.4,29.81,SSW,196,8.0,9.0,86,0.00,,---,0.00,VWS V14.01,2013-09-21 15:03:00,
2013-09-21 11:08:00,64.9,60.6,29.81,SSW,207,2.0,9.0,86,0.00,,---,0.00,VWS V14.01,2013-09-21 15:08:00,
2013-09-21 11:13:00,64.9,60.6,29.80,ESE,110,1.0,9.0,86,0.00,,---,0.00,VWS V14.01,2013-09-21 15:13:00,
2013-09-21 11:18:00,65.0,60.7,29.80,SSE,153,0.0,9.0,86,0.00,,---,0.00,VWS V14.01,2013-09-21 15:18:00,
2013-09-21 11:23:00,64.9,60.6,29.80,ESE,120,2.0,9.0,86,0.00,,---,0.00,VWS V14.01,2013-09-21 15:23:00,
2013-09-21 11:28:00,65.0,60.7,29.80,SSE,158,0.0,9.0,86,0.00,,---,0.00,VWS V14.01,2013-09-21 15:28:00,
2013-09-21 11:30:00,64.3,60.3,29.83,SW,222,1.0,5.0,87,0.00,,---,0.00,VWS V14.01,2013-09-21 15:30:00,
2013-09-21 11:33:00,65.0,60.7,29.80,SSE,158,1.0,3.0,86,0.00,,---,0.00,VWS V14.01,2013-09-21 15:33:00,
2013-09-21 11:38:00,65.0,60.7,29.79,SW,217,1.0,4.0,86,0.00,,---,0.00,VWS V14.01,2013-09-21 15:38:00,
2013-09-21 11:43:00,65.1,60.8,29.79,SSW,212,0.0,6.0,86,0.00,,---,0.00,VWS V14.01,2013-09-21 15:43:00,
2013-09-21 11:48:00,65.1,60.8,29.79,SSW,209,5.0,7.0,86,0.00,,---,0.00,VWS V14.01,2013-09-21 15:48:00,
2013-09-21 11:53:00,65.1,60.8,29.78,North,349,1.0,7.0,86,0.00,,---,0.00,VWS V14.01,2013-09-21 15:53:00,
2013-09-21 11:58:00,65.1,60.8,29.78,East,98,5.0,7.0,86,0.00,,---,0.00,VWS V14.01,2013-09-21 15:58:00,
2013-09-21 12:00:00,64.6,60.7,29.81,South,191,1.0,8.0,87,0.00,,---,0.00,VWS V14.01,2013-09-21 16:00:00,
2013-09-21 12:03:00,65.1,60.8,29.78,SW,214,0.0,5.0,86,0.00,,---,0.00,VWS V14.01,2013-09-21 16:03:00,
2013-09-21 12:08:00,65.0,61.0,29.78,SSW,212,2.0,6.0,87,0.00,,---,0.00,VWS V14.01,2013-09-21 16:08:00,
2013-09-21 12:13:00,64.9,60.9,29.78,West,279,3.0,6.0,87,0.00,,---,0.00,VWS V14.01,2013-09-21 16:13:00,
2013-09-21 12:18:00,64.8,60.8,29.77,WNW,289,0.0,6.0,87,0.00,,---,0.00,VWS V14.01,2013-09-21 16:18:00,
2013-09-21 12:23:00,64.7,61.1,29.77,West,274,0.0,6.0,88,0.00,,---,0.00,VWS V14.01,2013-09-21 16:23:00,
2013-09-21 12:28:00,64.7,60.8,29.77,SSE,162,0.0,6.0,87,0.00,,---,0.00,VWS V14.01,2013-09-21 16:28:00,
2013-09-21 12:30:00,65.0,60.7,29.80,SSW,200,1.0,9.0,86,0.00,,---,0.00,VWS V14.01,2013-09-21 16:30:00,
2013-09-21 12:33:00,64.8,60.8,29.77,SE,143,0.0,3.0,87,0.00,,---,0.00,VWS V14.01,2013-09-21 16:33:00,
2013-09-21 12:38:00,64.8,61.2,29.76,NW,321,0.0,3.0,88,0.00,,---,0.00,VWS V14.01,2013-09-21 16:38:00,
2013-09-21 12:43:00,64.8,61.2,29.76,WSW,255,0.0,3.0,88,0.00,,---,0.00,VWS V14.01,2013-09-21 16:43:00,
2013-09-21 12:48:00,64.7,61.1,29.76,SW,224,0.0,3.0,88,0.00,,---,0.00,VWS V14.01,2013-09-21 16:48:00,
2013-09-21 12:53:00,64.9,61.3,29.76,SE,135,0.0,3.0,88,0.00,,---,0.00,VWS V14.01,2013-09-21 16:53:00,
2013-09-21 12:58:00,64.9,60.9,29.75,SSW,207,1.0,3.0,87,0.00,,---,0.00,VWS V14.01,2013-09-21 16:58:00,
2013-09-21 13:00:00,64.9,60.9,29.75,WNW,285,0.0,3.0,87,0.00,,---,0.00,VWS V14.01,2013-09-21 17:00:00,
2013-09-21 13:03:00,65.1,61.1,29.75,SSW,210,0.0,4.0,87,0.00,,---,0.00,VWS V14.01,2013-09-21 17:03:00,
2013-09-21 13:08:00,65.2,61.2,29.75,WNW,302,0.0,4.0,87,0.00,,---,0.00,VWS V14.01,2013-09-21 17:08:00,
2013-09-21 13:13:00,65.2,61.2,29.75,South,188,0.0,4.0,87,0.00,,---,0.00,VWS V14.01,2013-09-21 17:13:00,
2013-09-21 13:18:00,65.3,61.3,29.74,NE,39,1.0,4.0,87,0.00,,---,0.00,VWS V14.01,2013-09-21 17:18:00,
2013-09-21 13:23:00,65.4,61.8,29.74,NE,44,0.0,4.0,88,0.00,,---,0.00,VWS V14.01,2013-09-21 17:23:00,
2013-09-21 13:28:00,65.4,61.4,29.74,NE,46,0.0,4.0,87,0.00,,---,0.00,VWS V14.01,2013-09-21 17:28:00,
2013-09-21 13:30:00,64.7,60.8,29.77,East,89,1.0,6.0,87,0.00,,---,0.00,VWS V14.01,2013-09-21 17:30:00,
2013-09-21 13:33:00,65.4,61.8,29.74,NE,45,0.0,0.0,88,0.00,,---,0.00,VWS V14.01,2013-09-21 17:33:00,
2013-09-21 13:38:00,65.4,61.4,29.73,SSE,163,0.0,1.0,87,0.00,,---,0.00,VWS V14.01,2013-09-21 17:38:00,
2013-09-21 13:43:00,65.6,61.6,29.73,South,182,0.0,3.0,87,0.00,,---,0.00,VWS V14.01,2013-09-21 17:43:00,
2013-09-21 13:48:00,65.7,61.4,29.73,East,95,0.0,3.0,86,0.00,,---,0.00,VWS V14.01,2013-09-21 17:48:00,
2013-09-21 13:53:00,65.8,61.8,29.73,SW,214,0.0,4.0,87,0.00,,---,0.00,VWS V14.01,2013-09-21 17:53:00,
2013-09-21 13:58:00,65.6,62.0,29.72,WNW,293,0.0,4.0,88,0.00,,---,0.00,VWS V14.01,2013-09-21 17:58:00,
2013-09-21 14:00:00,64.9,60.9,29.75,WNW,285,0.0,3.0,87,0.00,,---,0.00,VWS V14.01,2013-09-21 18:00:00,
2013-09-21 14:03:00,65.4,61.8,29.72,WSW,256,0.0,1.0,88,0.00,,---,0.00,VWS V14.01,2013-09-21 18:03:00,
2013-09-21 14:08:00,65.0,62.0,29.72,NNE,26,0.0,1.0,90,0.00,,---,0.00,VWS V14.01,2013-09-21 18:08:00,
2013-09-21 14:13:00,64.7,62.0,29.72,NNE,33,0.0,2.0,91,0.00,,---,0.00,VWS V14.01,2013-09-21 18:13:00,
2013-09-21 14:18:00,64.4,62.3,29.71,NE,39,0.0,2.0,93,0.00,,---,0.00,VWS V14.01,2013-09-21 18:18:00,
2013-09-21 14:23:00,64.0,61.9,29.70,East,82,0.0,2.0,93,0.00,,---,0.00,VWS V14.01,2013-09-21 18:23:00,
2013-09-21 14:28:00,63.8,62.0,29.70,NE,37,2.0,3.0,94,0.00,,---,0.00,VWS V14.01,2013-09-21 18:28:00,
2013-09-21 14:30:00,65.4,61.8,29.74,NE,45,0.0,4.0,88,0.00,,---,0.00,VWS V14.01,2013-09-21 18:30:00,
2013-09-21 14:33:00,63.7,62.0,29.70,NE,34,0.0,1.0,94,0.00,,---,0.00,VWS V14.01,2013-09-21 18:33:00,
2013-09-21 14:38:00,63.7,62.0,29.70,North,349,0.0,1.0,94,0.00,,---,0.00,VWS V14.01,2013-09-21 18:38:00,
2013-09-21 14:43:00,63.7,62.2,29.70,North,349,0.0,1.0,95,0.00,,---,0.00,VWS V14.01,2013-09-21 18:43:00,
2013-09-21 14:48:00,63.8,62.0,29.69,North,10,0.0,1.0,94,0.00,,---,0.00,VWS V14.01,2013-09-21 18:48:00,
2013-09-21 14:53:00,63.9,62.1,29.69,North,9,0.0,1.0,94,0.00,,---,0.00,VWS V14.01,2013-09-21 18:53:00,
2013-09-21 14:58:00,64.0,62.2,29.69,North,352,0.0,1.0,94,0.00,,---,0.00,VWS V14.01,2013-09-21 18:58:00,
2013-09-21 15:00:00,65.6,62.0,29.72,WNW,293,0.0,4.0,88,0.00,,---,0.00,VWS V14.01,2013-09-21 19:00:00,
2013-09-21 15:03:00,64.1,62.6,29.69,SW,220,0.0,1.0,95,0.00,,---,0.00,VWS V14.01,2013-09-21 19:03:00,
2013-09-21 15:08:00,64.2,62.7,29.69,SW,216,0.0,1.0,95,0.00,,---,0.00,VWS V14.01,2013-09-21 19:08:00,
2013-09-21 15:13:00,64.2,62.4,29.69,West,269,0.0,1.0,94,0.00,,---,0.00,VWS V14.01,2013-09-21 19:13:00,
2013-09-21 15:18:00,64.2,62.4,29.68,WSW,257,0.0,1.0,94,0.00,,---,0.00,VWS V14.01,2013-09-21 19:18:00,
2013-09-21 15:23:00,64.3,62.5,29.68,East,93,0.0,1.0,94,0.00,,---,0.00,VWS V14.01,2013-09-21 19:23:00,
2013-09-21 15:28:00,64.5,62.4,29.68,NE,56,0.0,2.0,93,0.00,,---,0.00,VWS V14.01,2013-09-21 19:28:00,
2013-09-21 15:30:00,63.8,62.0,29.70,NE,36,0.0,3.0,94,0.00,,---,0.00,VWS V14.01,2013-09-21 19:30:00,
2013-09-21 15:33:00,64.6,62.5,29.68,NE,53,0.0,0.0,93,0.00,,---,0.00,VWS V14.01,2013-09-21 19:33:00,
2013-09-21 15:38:00,64.9,62.5,29.68,NE,41,1.0,2.0,92,0.00,,---,0.00,VWS V14.01,2013-09-21 19:38:00,
2013-09-21 15:43:00,65.0,62.6,29.67,North,356,0.0,2.0,92,0.01,,---,0.01,VWS V14.01,2013-09-21 19:43:00,
2013-09-21 15:48:00,65.0,62.9,29.68,NW,326,0.0,2.0,93,0.02,,---,0.02,VWS V14.01,2013-09-21 19:48:00,
2013-09-21 15:53:00,64.9,62.8,29.68,NW,326,0.0,2.0,93,0.04,,---,0.04,VWS V14.01,2013-09-21 19:53:00,
2013-09-21 15:58:00,64.8,62.7,29.67,South,181,0.0,2.0,93,0.06,,---,0.06,VWS V14.01,2013-09-21 19:58:00,
2013-09-21 16:00:00,64.0,62.2,29.69,North,352,0.0,1.0,94,0.00,,---,0.00,VWS V14.01,2013-09-21 20:00:00,
2013-09-21 16:03:00,64.8,62.7,29.68,NNW,328,0.0,1.0,93,0.07,,---,0.07,VWS V14.01,2013-09-21 20:03:00,
2013-09-21 16:08:00,64.7,62.9,29.68,NNW,328,0.0,1.0,94,0.07,,---,0.07,VWS V14.01,2013-09-21 20:08:00,
2013-09-21 16:13:00,64.5,62.7,29.67,NNW,328,0.0,1.0,94,0.08,,---,0.08,VWS V14.01,2013-09-21 20:13:00,
2013-09-21 16:18:00,64.5,62.7,29.67,West,260,1.0,1.0,94,0.09,,---,0.09,VWS V14.01,2013-09-21 20:18:00,
2013-09-21 16:23:00,64.4,62.6,29.67,SSW,200,0.0,3.0,94,0.11,,---,0.11,VWS V14.01,2013-09-21 20:23:00,
2013-09-21 16:28:00,64.4,62.6,29.67,SSW,203,0.0,3.0,94,0.12,,---,0.12,VWS V14.01,2013-09-21 20:28:00,
2013-09-21 16:30:00,64.6,62.5,29.68,NE,53,0.0,2.0,93,0.00,,---,0.00,VWS V14.01,2013-09-21 20:30:00,
2013-09-21 16:33:00,64.3,62.5,29.68,SSW,204,0.0,0.0,94,0.13,,---,0.13,VWS V14.01,2013-09-21 20:33:00,
2013-09-21 16:38:00,64.2,62.4,29.68,ESE,112,0.0,2.0,94,0.14,,---,0.14,VWS V14.01,2013-09-21 20:38:00,
2013-09-21 16:43:00,64.0,62.5,29.68,SW,231,0.0,2.0,95,0.15,,---,0.15,VWS V14.01,2013-09-21 20:43:00,
2013-09-21 16:48:00,63.9,62.4,29.68,South,191,0.0,3.0,95,0.16,,---,0.16,VWS V14.01,2013-09-21 20:48:00,
2013-09-21 16:53:00,63.8,62.3,29.68,East,92,0.0,3.0,95,0.17,,---,0.17,VWS V14.01,2013-09-21 20:53:00,
2013-09-21 16:58:00,63.7,62.2,29.68,East,84,1.0,3.0,95,0.17,,---,0.17,VWS V14.01,2013-09-21 20:58:00,
2013-09-21 17:00:00,64.8,62.7,29.67,South,181,0.0,2.0,93,0.06,,---,0.06,VWS V14.01,2013-09-21 21:00:00,
2013-09-21 17:03:00,63.6,62.4,29.67,East,85,0.0,2.0,96,0.12,,---,0.18,VWS V14.01,2013-09-21 21:03:00,
2013-09-21 17:08:00,63.5,62.3,29.68,ESE,110,0.0,6.0,96,0.13,,---,0.19,VWS V14.01,2013-09-21 21:08:00,
2013-09-21 17:13:00,63.4,62.2,29.67,ENE,73,1.0,6.0,96,0.14,,---,0.20,VWS V14.01,2013-09-21 21:13:00,
2013-09-21 17:18:00,63.4,62.2,29.68,SW,218,0.0,6.0,96,0.16,,---,0.22,VWS V14.01,2013-09-21 21:18:00,
2013-09-21 17:23:00,63.4,62.2,29.68,North,352,0.0,6.0,96,0.16,,---,0.22,VWS V14.01,2013-09-21 21:23:00,
2013-09-21 17:28:00,63.3,62.1,29.68,NNW,335,2.0,6.0,96,0.17,,---,0.23,VWS V14.01,2013-09-21 21:28:00,
2013-09-21 17:30:00,64.3,62.5,29.68,SSW,203,0.0,3.0,94,0.12,,---,0.12,VWS V14.01,2013-09-21 21:30:00,
2013-09-21 17:33:00,63.4,62.2,29.68,SSW,198,0.0,3.0,96,0.12,,---,0.24,VWS V14.01,2013-09-21 21:33:00,
2013-09-21 17:38:00,63.4,62.2,29.68,East,96,0.0,3.0,96,0.12,,---,0.24,VWS V14.01,2013-09-21 21:38:00,
2013-09-21 17:43:00,63.3,62.1,29.68,SSW,203,1.0,5.0,96,0.13,,---,0.25,VWS V14.01,2013-09-21 21:43:00,
2013-09-21 17:48:00,63.3,62.1,29.67,NNW,328,1.0,5.0,96,0.13,,---,0.25,VWS V14.01,2013-09-21 21:48:00,
2013-09-21 17:53:00,63.3,62.1,29.68,SSW,210,0.0,5.0,96,0.13,,---,0.25,VWS V14.01,2013-09-21 21:53:00,
2013-09-21 17:58:00,63.3,62.1,29.68,South,191,1.0,5.0,96,0.14,,---,0.26,VWS V14.01,2013-09-21 21:58:00,
2013-09-21 18:00:00,63.7,62.5,29.67,East,101,0.0,3.0,96,0.17,,---,0.17,VWS V14.01,2013-09-21 22:00:00,
2013-09-21 18:03:00,63.2,62.0,29.68,East,92,1.0,3.0,96,0.09,,---,0.26,VWS V14.01,2013-09-21 22:03:00,
2013-09-21 18:08:00,63.2,62.0,29.68,SSW,205,3.0,7.0,96,0.10,,---,0.27,VWS V14.01,2013-09-21 22:08:00,
2013-09-21 18:13:00,63.1,61.7,29.68,NNW,340,7.0,7.0,95,0.11,,---,0.28,VWS V14.01,2013-09-21 22:13:00,
2013-09-21 18:18:00,62.8,59.8,29.68,NW,311,4.0,10.0,90,0.11,,---,0.28,VWS V14.01,2013-09-21 22:18:00,
2013-09-21 18:23:00,62.2,59.5,29.68,SSW,198,0.0,10.0,91,0.11,,---,0.28,VWS V14.01,2013-09-21 22:23:00,
2013-09-21 18:28:00,61.7,58.7,29.69,WNW,303,1.0,10.0,90,0.12,,---,0.29,VWS V14.01,2013-09-21 22:28:00,
2013-09-21 18:30:00,63.3,62.1,29.68,SSW,205,0.0,6.0,96,0.17,,---,0.23,VWS V14.01,2013-09-21 22:30:00,
2013-09-21 18:33:00,61.4,59.1,29.69,NE,56,2.0,7.0,92,0.06,,---,0.29,VWS V14.01,2013-09-21 22:33:00,
2013-09-21 18:38:00,60.9,58.6,29.70,SW,225,0.0,7.0,92,0.06,,---,0.29,VWS V14.01,2013-09-21 22:38:00,
2013-09-21 18:43:00,60.6,58.6,29.70,SSW,208,0.0,7.0,93,0.06,,---,0.29,VWS V14.01,2013-09-21 22:43:00,
2013-09-21 18:48:00,60.4,58.1,29.69,SE,136,1.0,7.0,92,0.06,,---,0.29,VWS V14.01,2013-09-21 22:48:00,
2013-09-21 18:53:00,60.1,58.1,29.69,East,96,1.0,7.0,93,0.06,,---,0.29,VWS V14.01,2013-09-21 22:53:00,
2013-09-21 18:58:00,59.9,58.2,29.69,NW,319,0.0,7.0,94,0.06,,---,0.29,VWS V14.01,2013-09-21 22:58:00,
2013-09-21 19:00:00,63.2,62.0,29.67,South,186,0.0,5.0,96,0.14,,---,0.26,VWS V14.01,2013-09-21 23:00:00,
2013-09-21 19:03:00,59.6,58.2,29.69,East,90,0.0,2.0,95,0.03,,---,0.29,VWS V14.01,2013-09-21 23:03:00,
2013-09-21 19:08:00,59.5,58.1,29.68,SSE,165,0.0,2.0,95,0.04,,---,0.30,VWS V14.01,2013-09-21 23:08:00,
2013-09-21 19:13:00,59.4,58.0,29.68,SSE,155,0.0,4.0,95,0.04,,---,0.30,VWS V14.01,2013-09-21 23:13:00,
2013-09-21 19:18:00,59.4,58.0,29.68,ESE,118,0.0,4.0,95,0.04,,---,0.30,VWS V14.01,2013-09-21 23:18:00,
2013-09-21 19:23:00,59.5,57.5,29.69,WSW,251,1.0,5.0,93,0.04,,---,0.30,VWS V14.01,2013-09-21 23:23:00,
2013-09-21 19:28:00,59.9,57.6,29.70,North,360,0.0,5.0,92,0.04,,---,0.30,VWS V14.01,2013-09-21 23:28:00,
2013-09-21 19:30:00,61.6,58.6,29.68,South,187,2.0,11.0,90,0.12,,---,0.29,VWS V14.01,2013-09-21 23:30:00,
2013-09-21 19:33:00,59.9,57.9,29.69,NE,46,0.0,3.0,93,0.02,,---,0.31,VWS V14.01,2013-09-21 23:33:00,
2013-09-21 19:38:00,59.5,57.8,29.70,South,181,0.0,3.0,94,0.02,,---,0.31,VWS V14.01,2013-09-21 23:38:00,
2013-09-21 19:43:00,59.2,57.5,29.70,East,94,0.0,3.0,94,0.02,,---,0.31,VWS V14.01,2013-09-21 23:43:00,
2013-09-21 19:48:00,59.0,57.6,29.69,East,94,0.0,3.0,95,0.02,,---,0.31,VWS V14.01,2013-09-21 23:48:00,
2013-09-21 19:53:00,58.9,57.8,29.69,NNW,334,0.0,3.0,96,0.03,,---,0.32,VWS V14.01,2013-09-21 23:53:00,
2013-09-21 19:58:00,59.0,57.6,29.70,NNW,330,0.0,3.0,95,0.03,,---,0.32,VWS V14.01,2013-09-21 23:58:00,
2013-09-21 20:00:00,59.8,58.1,29.68,SSE,158,0.0,7.0,94,0.06,,---,0.29,VWS V14.01,2013-09-22 00:00:00,
2013-09-21 20:03:00,59.0,57.9,29.70,NNW,330,0.0,0.0,96,0.03,,---,0.32,VWS V14.01,2013-09-22 00:03:00,
2013-09-21 20:09:00,59.0,57.9,29.70,NNW,330,0.0,0.0,96,0.03,,---,0.32,VWS V14.01,2013-09-22 00:09:00,
2013-09-21 20:14:00,58.9,57.8,29.70,West,276,0.0,0.0,96,0.03,,---,0.32,VWS V14.01,2013-09-22 00:14:00,
2013-09-21 20:19:00,58.8,57.7,29.71,West,276,0.0,1.0,96,0.03,,---,0.32,VWS V14.01,2013-09-22 00:19:00,
2013-09-21 20:24:00,58.8,57.7,29.71,West,276,0.0,1.0,96,0.04,,---,0.33,VWS V14.01,2013-09-22 00:24:00,
2013-09-21 20:28:00,58.7,57.6,29.72,West,276,0.0,1.0,96,0.04,,---,0.33,VWS V14.01,2013-09-22 00:28:00,
2013-09-21 20:30:00,59.9,57.6,29.70,NE,44,2.0,5.0,92,0.04,,---,0.30,VWS V14.01,2013-09-22 00:30:00,
2013-09-21 20:33:00,58.7,57.6,29.71,West,276,0.0,0.0,96,0.03,,---,0.33,VWS V14.01,2013-09-22 00:33:00,
2013-09-21 20:38:00,58.7,57.8,29.71,West,276,0.0,0.0,97,0.03,,---,0.33,VWS V14.01,2013-09-22 00:38:00,
2013-09-21 20:44:00,58.6,57.8,29.71,West,276,0.0,0.0,97,0.03,,---,0.33,VWS V14.01,2013-09-22 00:44:00,
2013-09-21 20:49:00,58.5,57.7,29.71,West,276,0.0,0.0,97,0.03,,---,0.33,VWS V14.01,2013-09-22 00:49:00,
2013-09-21 20:54:00,58.5,57.7,29.72,West,276,0.0,0.0,97,0.04,,---,0.34,VWS V14.01,2013-09-22 00:54:00,
2013-09-21 20:58:00,58.4,57.6,29.72,West,277,0.0,1.0,97,0.04,,---,0.34,VWS V14.01,2013-09-22 00:58:00,
2013-09-21 21:00:00,58.9,57.8,29.70,NNW,330,0.0,3.0,96,0.03,,---,0.32,VWS V14.01,2013-09-22 01:00:00,
2013-09-21 21:03:00,58.4,57.6,29.72,West,276,0.0,0.0,97,0.03,,---,0.35,VWS V14.01,2013-09-22 01:03:00,
2013-09-21 21:08:00,58.4,57.6,29.72,West,276,0.0,1.0,97,0.04,,---,0.36,VWS V14.01,2013-09-22 01:08:00,
2013-09-21 21:13:00,58.4,57.6,29.72,West,276,0.0,1.0,97,0.04,,---,0.36,VWS V14.01,2013-09-22 01:13:00,
2013-09-21 21:18:00,58.3,57.5,29.72,West,276,0.0,1.0,97,0.05,,---,0.37,VWS V14.01,2013-09-22 01:18:00,
2013-09-21 21:23:00,58.3,57.5,29.72,WNW,287,0.0,1.0,97,0.05,,---,0.37,VWS V14.01,2013-09-22 01:23:00,
2013-09-21 21:28:00,58.3,57.5,29.71,NNW,339,0.0,1.0,97,0.05,,---,0.37,VWS V14.01,2013-09-22 01:28:00,
2013-09-21 21:30:00,58.7,57.6,29.72,West,276,0.0,1.0,96,0.04,,---,0.33,VWS V14.01,2013-09-22 01:30:00,
2013-09-21 21:33:00,58.3,57.7,29.72,NNW,338,0.0,0.0,98,0.04,,---,0.37,VWS V14.01,2013-09-22 01:33:00,
2013-09-21 21:38:00,58.2,57.6,29.72,NNW,338,0.0,0.0,98,0.04,,---,0.37,VWS V14.01,2013-09-22 01:38:00,
2013-09-21 21:43:00,58.1,57.5,29.72,NNW,338,0.0,0.0,98,0.04,,---,0.37,VWS V14.01,2013-09-22 01:43:00,
2013-09-21 21:48:00,58.1,57.5,29.72,SSW,210,0.0,1.0,98,0.04,,---,0.37,VWS V14.01,2013-09-22 01:48:00,
2013-09-21 21:53:00,58.0,57.4,29.72,SSW,210,0.0,1.0,98,0.04,,---,0.37,VWS V14.01,2013-09-22 01:53:00,
2013-09-21 21:58:00,58.0,57.4,29.72,SSW,210,0.0,1.0,98,0.04,,---,0.37,VWS V14.01,2013-09-22 01:58:00,
2013-09-21 22:00:00,58.4,57.6,29.72,West,276,0.0,1.0,97,0.04,,---,0.34,VWS V14.01,2013-09-22 02:00:00,
2013-09-21 22:03:00,57.9,57.3,29.72,SSW,210,0.0,0.0,98,0.03,,---,0.37,VWS V14.01,2013-09-22 02:03:00,
2013-09-21 22:08:00,57.8,57.2,29.73,SSW,210,0.0,0.0,98,0.03,,---,0.37,VWS V14.01,2013-09-22 02:08:00,
2013-09-21 22:13:00,57.8,57.2,29.73,SSW,210,0.0,0.0,98,0.03,,---,0.37,VWS V14.01,2013-09-22 02:13:00,
2013-09-21 22:18:00,57.8,57.2,29.73,SSW,210,0.0,0.0,98,0.03,,---,0.37,VWS V14.01,2013-09-22 02:18:00,
2013-09-21 22:23:00,57.8,57.2,29.73,SSW,210,0.0,0.0,98,0.03,,---,0.37,VWS V14.01,2013-09-22 02:23:00,
2013-09-21 22:28:00,57.8,57.2,29.73,SSW,210,0.0,0.0,98,0.03,,---,0.37,VWS V14.01,2013-09-22 02:28:00,
2013-09-21 22:30:00,58.3,57.5,29.72,NNW,339,0.0,1.0,97,0.05,,---,0.37,VWS V14.01,2013-09-22 02:30:00,
2013-09-21 22:33:00,57.8,57.2,29.73,SSW,210,0.0,0.0,98,0.00,,---,0.37,VWS V14.01,2013-09-22 02:33:00,
2013-09-21 22:38:00,57.7,57.1,29.73,SSW,210,0.0,0.0,98,0.00,,---,0.37,VWS V14.01,2013-09-22 02:38:00,
2013-09-21 22:43:00,57.8,57.2,29.74,WSW,238,0.0,1.0,98,0.00,,---,0.37,VWS V14.01,2013-09-22 02:43:00,
2013-09-21 22:48:00,57.8,57.2,29.74,WSW,238,0.0,1.0,98,0.00,,---,0.37,VWS V14.01,2013-09-22 02:48:00,
2013-09-21 22:53:00,57.9,57.3,29.74,WSW,238,0.0,1.0,98,0.00,,---,0.37,VWS V14.01,2013-09-22 02:53:00,
2013-09-21 22:58:00,57.9,57.3,29.73,WSW,238,0.0,1.0,98,0.00,,---,0.37,VWS V14.01,2013-09-22 02:58:00,
2013-09-21 23:00:00,58.0,57.4,29.72,SSW,210,0.0,1.0,98,0.04,,---,0.37,VWS V14.01,2013-09-22 03:00:00,
2013-09-21 23:03:00,57.9,57.3,29.74,WSW,238,0.0,0.0,98,0.00,,---,0.37,VWS V14.01,2013-09-22 03:03:00,
2013-09-21 23:08:00,57.9,57.3,29.74,WSW,238,0.0,0.0,98,0.00,,---,0.37,VWS V14.01,2013-09-22 03:08:00,
2013-09-21 23:13:00,58.0,57.4,29.74,WSW,238,0.0,0.0,98,0.00,,---,0.37,VWS V14.01,2013-09-22 03:13:00,
2013-09-21 23:18:00,58.0,57.4,29.74,WSW,238,0.0,0.0,98,0.00,,---,0.37,VWS V14.01,2013-09-22 03:18:00,
2013-09-21 23:23:00,58.1,57.5,29.74,WSW,238,0.0,0.0,98,0.00,,---,0.37,VWS V14.01,2013-09-22 03:23:00,
2013-09-21 23:28:00,58.1,57.5,29.74,WSW,238,0.0,0.0,98,0.00,,---,0.37,VWS V14.01,2013-09-22 03:28:00,
2013-09-21 23:30:00,57.8,57.2,29.73,SSW,210,0.0,0.0,98,0.03,,---,0.37,VWS V14.01,2013-09-22 03:30:00,
2013-09-21 23:33:00,58.2,57.6,29.74,WSW,238,0.0,0.0,98,0.00,,---,0.37,VWS V14.01,2013-09-22 03:33:00,
2013-09-21 23:38:00,58.1,57.5,29.74,SW,231,0.0,0.0,98,0.00,,---,0.37,VWS V14.01,2013-09-22 03:38:00,
2013-09-21 23:43:00,58.1,57.5,29.74,SW,231,0.0,0.0,98,0.00,,---,0.37,VWS V14.01,2013-09-22 03:43:00,
2013-09-21 23:49:00,58.2,57.6,29.73,SSW,197,0.0,1.0,98,0.00,,---,0.37,VWS V14.01,2013-09-22 03:49:00,
2013-09-21 23:54:00,58.2,57.6,29.74,SSW,195,0.0,1.0,98,0.00,,---,0.37,VWS V14.01,2013-09-22 03:54:00,
2013-09-21 23:59:00,58.1,57.5,29.73,SSW,195,0.0,1.0,98,0.00,,---,0.37,VWS V14.01,2013-09-22 03:59:00,